Flood From: 19-02-2018 10:30 Until: 20-02-2018 06:00 warning for: Flood Level: Yellow info button

Although rather usual in this region, locally or potentially dangerous phenomena are expected. (such as local winds, summer thunderstorms, rising streams or high waves) Be aware and pay attention to the latest weather updates, especially if you carry out activities exposed to weather or close to a stream or shoreline. 


Meteo18 Weather Cam more information Meteo18 Weather Cam


Thunder radar more information blitzortung!


Rain radar more information rain snow radar


Visit our other weather sites:

Template documentation
and downloads

And another site



Weather Underground History page Text

Daily Summary for April 3, 2017 Units:  English    Metric   Both
« Previous Day
Next Day »
Daily Weekly Monthly Yearly Custom
  High: Low: Average:
Temperature: TemperatureC °F 7.8 °F 13 °F
Dew Point: DewpointC °F 5.1 °F 6.6 °F
Humidity: Humidity % 42 % 66 %
Wind Speed: WindSpeedKMH mph 0.0 mph 5 mph
Wind Gust: WindSpeedGustKMH mph - -
Wind:- - SW
Pressure: PressurehPa in 1024.6 in -
Precipitation: 0.0 in    
Historical Graphs
 
 
Tabular Data for April 3, 2017
Time Temperature Dew Point Pressure Wind Wind Speed Wind Gust Humidity Rainfall Rate (Hourly)
TemperatureC °F DewpointC °F PressurehPa in Calm     Humidity % HourlyPrecipMM in
00:02 10.8 °F 7.1 °F 1024.9 in NW 3.2 mph 4.8 mph 78 % 0.0 in
00:07 10.7 °F 7.0 °F 1024.9 in NW 1.6 mph 6.4 mph 78 % 0.0 in
00:12 10.8 °F 7.1 °F 1024.9 in NW 1.6 mph 6.4 mph 78 % 0.0 in
00:17 10.8 °F 7.1 °F 1024.9 in NW 3.2 mph 6.4 mph 78 % 0.0 in
00:22 10.8 °F 7.1 °F 1024.9 in NW 3.2 mph 6.4 mph 78 % 0.0 in
00:27 10.8 °F 7.1 °F 1024.9 in NW 4.8 mph 4.8 mph 78 % 0.0 in
00:32 10.7 °F 7.0 °F 1024.9 in Calm   4.8 mph 78 % 0.0 in
00:37 10.7 °F 7.0 °F 1024.9 in NW 3.2 mph 4.8 mph 78 % 0.0 in
00:42 10.7 °F 7.0 °F 1024.9 in NNW 3.2 mph 6.4 mph 78 % 0.0 in
00:52 10.7 °F 7.0 °F 1024.9 in NW 1.6 mph 6.4 mph 78 % 0.0 in
00:57 10.7 °F 7.0 °F 1024.9 in NW 1.6 mph 3.2 mph 78 % 0.0 in
01:02 10.7 °F 6.8 °F 1024.9 in Calm   3.2 mph 77 % 0.0 in
01:07 10.7 °F 7.0 °F 1024.9 in NW 1.6 mph 3.2 mph 78 % 0.0 in
01:12 10.6 °F 6.9 °F 1024.9 in NW 3.2 mph 6.4 mph 78 % 0.0 in
01:17 10.6 °F 6.9 °F 1024.9 in Calm   6.4 mph 78 % 0.0 in
01:22 10.5 °F 6.8 °F 1024.9 in NNW 1.6 mph 6.4 mph 78 % 0.0 in
01:27 10.5 °F 6.8 °F 1025.3 in Calm   3.2 mph 78 % 0.0 in
01:32 10.4 °F 6.7 °F 1024.9 in Calm   3.2 mph 78 % 0.0 in
01:37 10.3 °F 6.8 °F 1024.9 in Calm   3.2 mph 79 % 0.0 in
01:42 10.1 °F 6.6 °F 1024.9 in Calm   1.6 mph 79 % 0.0 in
01:47 10.1 °F 6.8 °F 1024.9 in Calm   3.2 mph 80 % 0.0 in
01:57 10.2 °F 6.7 °F 1025.3 in NNW 1.6 mph 4.8 mph 79 % 0.0 in
02:02 10.2 °F 6.7 °F 1025.3 in Calm   4.8 mph 79 % 0.0 in
02:07 10.3 °F 6.8 °F 1025.3 in NW 3.2 mph 4.8 mph 79 % 0.0 in
02:12 10.3 °F 6.6 °F 1024.9 in Calm   4.8 mph 78 % 0.0 in
02:17 10.3 °F 6.6 °F 1024.9 in NW 1.6 mph 4.8 mph 78 % 0.0 in
02:22 10.3 °F 6.6 °F 1024.9 in NNW 1.6 mph 4.8 mph 78 % 0.0 in
02:27 10.3 °F 6.6 °F 1025.3 in NW 1.6 mph 6.4 mph 78 % 0.0 in
02:32 10.4 °F 6.7 °F 1025.3 in NNW 1.6 mph 6.4 mph 78 % 0.0 in
02:37 10.4 °F 6.5 °F 1024.9 in NNW 3.2 mph 8.0 mph 77 % 0.0 in
02:42 10.5 °F 6.6 °F 1024.9 in NNW 3.2 mph 8.0 mph 77 % 0.0 in
02:47 10.6 °F 6.5 °F 1024.9 in NW 3.2 mph 6.4 mph 76 % 0.0 in
02:52 10.4 °F 6.5 °F 1024.9 in NNW 1.6 mph 6.4 mph 77 % 0.0 in
02:57 10.3 °F 6.4 °F 1024.9 in NW 3.2 mph 6.4 mph 77 % 0.0 in
03:02 10.2 °F 6.3 °F 1024.9 in NW 1.6 mph 6.4 mph 77 % 0.0 in
03:07 10.1 °F 6.4 °F 1024.9 in NW 1.6 mph 4.8 mph 78 % 0.0 in
03:12 10.0 °F 6.3 °F 1024.9 in NW 1.6 mph 4.8 mph 78 % 0.0 in
03:17 10.1 °F 6.4 °F 1024.9 in NW 3.2 mph 4.8 mph 78 % 0.0 in
03:22 10.1 °F 6.4 °F 1024.9 in NW 1.6 mph 4.8 mph 78 % 0.0 in
03:27 10.0 °F 6.3 °F 1024.9 in NW 1.6 mph 4.8 mph 78 % 0.0 in
03:32 10.0 °F 6.2 °F 1024.9 in NW 1.6 mph 6.4 mph 77 % 0.0 in
03:37 9.9 °F 6.2 °F 1024.9 in NNW 3.2 mph 6.4 mph 78 % 0.0 in
03:42 9.9 °F 6.2 °F 1024.9 in Calm   6.4 mph 78 % 0.0 in
03:47 9.8 °F 6.1 °F 1024.9 in NW 3.2 mph 6.4 mph 78 % 0.0 in
03:52 9.7 °F 6.2 °F 1024.9 in NNW 4.8 mph 6.4 mph 79 % 0.0 in
03:57 9.7 °F 6.2 °F 1024.9 in NNW 3.2 mph 6.4 mph 79 % 0.0 in
04:02 9.7 °F 6.2 °F 1024.9 in NNW 3.2 mph 8.0 mph 79 % 0.0 in
04:07 9.7 °F 6.0 °F 1024.9 in NNW 4.8 mph 8.0 mph 78 % 0.0 in
04:12 9.7 °F 6.0 °F 1024.9 in NW 3.2 mph 8.0 mph 78 % 0.0 in
04:17 9.7 °F 6.0 °F 1024.9 in NNW 4.8 mph 9.7 mph 78 % 0.0 in
04:22 9.7 °F 6.0 °F 1024.9 in NW 3.2 mph 9.7 mph 78 % 0.0 in
04:27 9.8 °F 6.1 °F 1024.9 in NNW 3.2 mph 6.4 mph 78 % 0.0 in
04:32 9.8 °F 6.0 °F 1024.9 in North 4.8 mph 8.0 mph 77 % 0.0 in
04:42 9.8 °F 6.0 °F 1024.9 in NNW 1.6 mph 8.0 mph 77 % 0.0 in
04:47 9.7 °F 5.9 °F 1024.9 in North 4.8 mph 8.0 mph 77 % 0.0 in
04:52 9.8 °F 6.0 °F 1024.9 in North 3.2 mph 8.0 mph 77 % 0.0 in
04:57 9.8 °F 6.0 °F 1024.9 in NNE 4.8 mph 9.7 mph 77 % 0.0 in
05:02 9.8 °F 6.0 °F 1024.9 in North 6.4 mph 11.3 mph 77 % 0.0 in
05:07 9.8 °F 6.0 °F 1024.9 in NNW 3.2 mph 14.5 mph 77 % 0.0 in
05:12 9.9 °F 6.1 °F 1024.9 in NNW 3.2 mph 14.5 mph 77 % 0.0 in
05:17 9.9 °F 6.1 °F 1024.9 in NW 3.2 mph 12.9 mph 77 % 0.0 in
05:22 9.8 °F 6.0 °F 1024.9 in NNW 1.6 mph 12.9 mph 77 % 0.0 in
05:27 9.8 °F 6.0 °F 1024.9 in NW 3.2 mph 8.0 mph 77 % 0.0 in
05:32 9.8 °F 6.0 °F 1024.9 in NNW 3.2 mph 8.0 mph 77 % 0.0 in
05:37 9.8 °F 6.0 °F 1024.9 in NNW 4.8 mph 8.0 mph 77 % 0.0 in
05:42 9.7 °F 5.9 °F 1024.9 in NNW 3.2 mph 9.7 mph 77 % 0.0 in
05:47 9.7 °F 5.9 °F 1024.9 in NNW 4.8 mph 9.7 mph 77 % 0.0 in
05:52 9.6 °F 6.0 °F 1024.9 in NNE 6.4 mph 9.7 mph 78 % 0.0 in
05:57 9.4 °F 5.8 °F 1024.9 in NNW 1.6 mph 9.7 mph 78 % 0.0 in
06:02 9.4 °F 5.8 °F 1024.9 in NNW 3.2 mph 8.0 mph 78 % 0.0 in
06:12 9.2 °F 5.7 °F 1024.9 in NW 3.2 mph 6.4 mph 79 % 0.0 in
06:17 9.1 °F 5.8 °F 1024.9 in NNW 1.6 mph 6.4 mph 80 % 0.0 in
06:22 9.1 °F 5.8 °F 1024.9 in NNW 3.2 mph 6.4 mph 80 % 0.0 in
06:27 9.1 °F 5.8 °F 1025.3 in NNW 3.2 mph 6.4 mph 80 % 0.0 in
06:32 8.9 °F 5.6 °F 1024.9 in NNW 4.8 mph 8.0 mph 80 % 0.0 in
06:37 8.8 °F 5.7 °F 1024.9 in NNW 1.6 mph 9.7 mph 81 % 0.0 in
06:42 8.7 °F 5.6 °F 1024.9 in NNW 6.4 mph 9.7 mph 81 % 0.0 in
06:47 8.6 °F 5.5 °F 1025.3 in NNW 3.2 mph 9.7 mph 81 % 0.0 in
06:52 8.6 °F 5.7 °F 1025.3 in NNW 1.6 mph 8.0 mph 82 % 0.0 in
07:02 8.5 °F 5.6 °F 1024.9 in NNW 3.2 mph 9.7 mph 82 % 0.0 in
07:07 8.6 °F 5.7 °F 1025.3 in Calm   9.7 mph 82 % 0.0 in
07:12 8.3 °F 5.4 °F 1025.3 in NNW 1.6 mph 9.7 mph 82 % 0.0 in
07:17 8.2 °F 5.5 °F 1025.3 in NNW 3.2 mph 8.0 mph 83 % 0.0 in
07:22 8.1 °F 5.4 °F 1025.3 in North 1.6 mph 6.4 mph 83 % 0.0 in
07:27 7.9 °F 5.4 °F 1025.3 in NW 1.6 mph 6.4 mph 84 % 0.0 in
07:32 7.8 °F 5.4 °F 1025.3 in NW 3.2 mph 6.4 mph 85 % 0.0 in
07:37 7.8 °F 5.4 °F 1025.3 in NNW 1.6 mph 6.4 mph 85 % 0.0 in
07:42 7.9 °F 5.5 °F 1025.3 in NW 4.8 mph 6.4 mph 85 % 0.0 in
07:47 8.0 °F 5.6 °F 1025.6 in NNW 1.6 mph 6.4 mph 85 % 0.0 in
07:52 8.1 °F 5.6 °F 1025.6 in Calm   6.4 mph 84 % 0.0 in
07:57 8.2 °F 5.7 °F 1025.6 in NNW 4.8 mph 8.0 mph 84 % 0.0 in
08:07 8.4 °F 5.7 °F 1025.6 in NNW 1.6 mph 8.0 mph 83 % 0.0 in
08:12 8.5 °F 5.8 °F 1025.6 in Calm   6.4 mph 83 % 0.0 in
08:17 8.6 °F 5.9 °F 1025.6 in Calm   6.4 mph 83 % 0.0 in
08:22 8.7 °F 6.0 °F 1025.6 in NNW 3.2 mph 6.4 mph 83 % 0.0 in
08:27 8.8 °F 6.1 °F 1025.6 in Calm   6.4 mph 83 % 0.0 in
08:37 9.3 °F 6.4 °F 1026.0 in NNW 1.6 mph 6.4 mph 82 % 0.0 in
08:42 9.5 °F 6.6 °F 1026.0 in NNW 1.6 mph 6.4 mph 82 % 0.0 in
08:47 9.7 °F 6.6 °F 1026.0 in NE 4.8 mph 8.0 mph 81 % 0.0 in
08:52 9.9 °F 6.6 °F 1026.0 in North 3.2 mph 9.7 mph 80 % 0.0 in
08:57 10.1 °F 6.8 °F 1026.0 in NNE 4.8 mph 9.7 mph 80 % 0.0 in
09:02 10.3 °F 7.0 °F 1026.0 in NNE 4.8 mph 9.7 mph 80 % 0.0 in
09:12 10.4 °F 7.3 °F 1026.0 in NE 3.2 mph 11.3 mph 81 % 0.0 in
09:17 10.6 °F 7.5 °F 1026.0 in NNE 4.8 mph 11.3 mph 81 % 0.0 in
09:22 10.8 °F 7.5 °F 1026.0 in NNW 8.0 mph 11.3 mph 80 % 0.0 in
09:27 11.0 °F 7.5 °F 1026.0 in NNE 8.0 mph 11.3 mph 79 % 0.0 in
09:32 11.1 °F 7.6 °F 1026.0 in NNW 8.0 mph 12.9 mph 79 % 0.0 in
09:37 11.3 °F 7.6 °F 1026.0 in NNW 3.2 mph 12.9 mph 78 % 0.0 in
09:42 11.5 °F 7.6 °F 1026.0 in NNE 9.7 mph 16.1 mph 77 % 0.0 in
09:47 11.7 °F 7.8 °F 1026.0 in North 6.4 mph 16.1 mph 77 % 0.0 in
09:52 11.8 °F 7.9 °F 1026.0 in North 8.0 mph 16.1 mph 77 % 0.0 in
09:57 11.9 °F 7.8 °F 1026.0 in NNE 6.4 mph 16.1 mph 76 % 0.0 in
10:02 12.1 °F 8.0 °F 1026.0 in NE 6.4 mph 16.1 mph 76 % 0.0 in
10:07 12.2 °F 7.9 °F 1026.0 in ENE 4.8 mph 16.1 mph 75 % 0.0 in
10:12 12.3 °F 7.8 °F 1026.0 in NNE 11.3 mph 17.7 mph 74 % 0.0 in
10:17 12.6 °F 8.3 °F 1026.0 in NNE 6.4 mph 17.7 mph 75 % 0.0 in
10:22 12.7 °F 8.2 °F 1026.0 in NW 4.8 mph 16.1 mph 74 % 0.0 in
10:27 12.7 °F 7.8 °F 1026.0 in NNW 9.7 mph 17.7 mph 72 % 0.0 in
10:32 12.8 °F 7.7 °F 1026.0 in North 14.5 mph 17.7 mph 71 % 0.0 in
10:37 13.0 °F 8.1 °F 1026.0 in NNE 8.0 mph 16.1 mph 72 % 0.0 in
10:42 13.1 °F 7.8 °F 1026.0 in NE 9.7 mph 16.1 mph 70 % 0.0 in
10:47 13.2 °F 7.8 °F 1026.3 in NNE 9.7 mph 17.7 mph 70 % 0.0 in
10:52 13.3 °F 8.2 °F 1026.0 in NNE 9.7 mph 17.7 mph 71 % 0.0 in
10:57 13.5 °F 8.3 °F 1026.3 in NNE 12.9 mph 17.7 mph 71 % 0.0 in
11:02 13.7 °F 8.3 °F 1026.0 in North 3.2 mph 14.5 mph 70 % 0.0 in
11:07 13.8 °F 8.2 °F 1026.0 in NE 6.4 mph 14.5 mph 69 % 0.0 in
11:12 14.0 °F 8.6 °F 1026.0 in NNE 3.2 mph 14.5 mph 70 % 0.0 in
11:17 14.3 °F 8.5 °F 1026.0 in NNE 4.8 mph 12.9 mph 68 % 0.0 in
11:22 14.4 °F 7.9 °F 1026.0 in NE 8.0 mph 11.3 mph 65 % 0.0 in
11:27 14.6 °F 8.3 °F 1026.0 in NE 4.8 mph 9.7 mph 66 % 0.0 in
11:32 14.8 °F 8.3 °F 1026.0 in East 1.6 mph 9.7 mph 65 % 0.0 in
11:37 15.1 °F 8.3 °F 1026.0 in NNW 4.8 mph 9.7 mph 64 % 0.0 in
11:42 15.3 °F 8.5 °F 1026.0 in NNE 6.4 mph 9.7 mph 64 % 0.0 in
11:47 15.5 °F 8.9 °F 1026.0 in NE 4.8 mph 9.7 mph 65 % 0.0 in
11:52 15.6 °F 8.1 °F 1026.0 in NE 6.4 mph 9.7 mph 61 % 0.0 in
11:57 15.6 °F 8.1 °F 1026.0 in ENE 6.4 mph 14.5 mph 61 % 0.0 in
12:02 15.7 °F 8.2 °F 1026.0 in NE 3.2 mph 14.5 mph 61 % 0.0 in
12:07 15.9 °F 8.4 °F 1026.0 in NNE 6.4 mph 12.9 mph 61 % 0.0 in
12:12 16.0 °F 8.0 °F 1026.0 in NE 4.8 mph 14.5 mph 59 % 0.0 in
12:17 16.1 °F 8.3 °F 1026.0 in East 11.3 mph 14.5 mph 60 % 0.0 in
12:22 16.1 °F 8.1 °F 1026.0 in ENE 8.0 mph 14.5 mph 59 % 0.0 in
12:27 16.2 °F 8.4 °F 1026.0 in NNE 9.7 mph 14.5 mph 60 % 0.0 in
12:32 16.3 °F 8.5 °F 1026.0 in North 8.0 mph 16.1 mph 60 % 0.0 in
12:42 16.3 °F 7.8 °F 1026.0 in NNE 11.3 mph 24.1 mph 57 % 0.0 in
12:47 16.5 °F 8.2 °F 1026.0 in ENE 8.0 mph 24.1 mph 58 % 0.0 in
12:52 16.6 °F 8.0 °F 1026.0 in NE 6.4 mph 24.1 mph 57 % 0.0 in
12:57 16.6 °F 8.3 °F 1026.0 in NE 8.0 mph 22.5 mph 58 % 0.0 in
13:02 16.8 °F 8.2 °F 1026.0 in NNE 16.1 mph 22.5 mph 57 % 0.0 in
13:07 16.7 °F 7.9 °F 1026.0 in NNE 11.3 mph 22.5 mph 56 % 0.0 in
13:12 16.9 °F 9.1 °F 1026.0 in ENE 16.1 mph 19.3 mph 60 % 0.0 in
13:17 17.0 °F 7.9 °F 1026.0 in ENE 3.2 mph 20.9 mph 55 % 0.0 in
13:22 17.1 °F 8.5 °F 1026.0 in NE 6.4 mph 20.9 mph 57 % 0.0 in
13:27 17.2 °F 8.3 °F 1025.6 in NNE 11.3 mph 25.7 mph 56 % 0.0 in
13:32 17.2 °F 8.3 °F 1025.6 in NE 14.5 mph 25.7 mph 56 % 0.0 in
13:37 17.2 °F 8.1 °F 1025.6 in NNE 12.9 mph 25.7 mph 55 % 0.0 in
13:42 17.2 °F 8.1 °F 1025.6 in Calm   20.9 mph 55 % 0.0 in
13:47 17.3 °F 8.4 °F 1025.6 in NE 4.8 mph 20.9 mph 56 % 0.0 in
13:57 17.3 °F 8.2 °F 1025.6 in NNW 12.9 mph 25.7 mph 55 % 0.0 in
14:02 17.2 °F 8.1 °F 1025.6 in NNE 17.7 mph 27.4 mph 55 % 0.0 in
14:07 17.0 °F 8.7 °F 1025.6 in NNE 9.7 mph 27.4 mph 58 % 0.0 in
14:12 17.1 °F 8.3 °F 1025.6 in NNE 11.3 mph 27.4 mph 56 % 0.0 in
14:17 17.2 °F 7.3 °F 1025.6 in East 8.0 mph 22.5 mph 52 % 0.0 in
14:22 17.4 °F 7.7 °F 1025.3 in NNE 16.1 mph 16.1 mph 53 % 0.0 in
14:27 17.3 °F 7.3 °F 1025.3 in NNE 9.7 mph 19.3 mph 52 % 0.0 in
14:32 17.1 °F 7.2 °F 1025.3 in NW 6.4 mph 19.3 mph 52 % 0.0 in
14:42 17.1 °F 8.5 °F 1025.3 in NE 8.0 mph 27.4 mph 57 % 0.0 in
14:47 17.6 °F 7.9 °F 1025.3 in NNE 12.9 mph 27.4 mph 53 % 0.0 in
14:52 17.5 °F 7.8 °F 1025.3 in NNE 3.2 mph 27.4 mph 53 % 0.0 in
14:57 17.8 °F 8.4 °F 1024.9 in NE 14.5 mph 20.9 mph 54 % 0.0 in
15:02 18.1 °F 7.8 °F 1024.9 in North 11.3 mph 19.3 mph 51 % 0.0 in
15:07 18.0 °F 7.4 °F 1024.9 in NNE 14.5 mph 22.5 mph 50 % 0.0 in
15:12 17.7 °F 7.4 °F 1024.9 in NNE 8.0 mph 22.5 mph 51 % 0.0 in
15:17 17.4 °F 7.2 °F 1024.9 in NE 3.2 mph 22.5 mph 51 % 0.0 in
15:22 17.7 °F 7.1 °F 1024.9 in North 14.5 mph 19.3 mph 50 % 0.0 in
15:32 17.8 °F 7.8 °F 1025.3 in NE 8.0 mph 25.7 mph 52 % 0.0 in
15:37 17.6 °F 7.6 °F 1025.3 in NE 9.7 mph 25.7 mph 52 % 0.0 in
15:42 18.0 °F 8.0 °F 1024.9 in WNW 11.3 mph 22.5 mph 52 % 0.0 in
15:47 18.3 °F 7.7 °F 1024.9 in NNW 9.7 mph 17.7 mph 50 % 0.0 in
15:52 18.2 °F 7.9 °F 1025.3 in ENE 4.8 mph 25.7 mph 51 % 0.0 in
15:57 17.8 °F 6.9 °F 1025.3 in NE 11.3 mph 25.7 mph 49 % 0.0 in
16:02 17.8 °F 6.9 °F 1024.9 in NE 8.0 mph 20.9 mph 49 % 0.0 in
16:07 17.8 °F 7.5 °F 1024.9 in NW 9.7 mph 19.3 mph 51 % 0.0 in
16:12 17.6 °F 7.1 °F 1024.9 in North 6.4 mph 19.3 mph 50 % 0.0 in
16:17 17.7 °F 7.4 °F 1024.9 in NNW 11.3 mph 19.3 mph 51 % 0.0 in
16:22 18.1 °F 7.2 °F 1024.9 in NNW 16.1 mph 16.1 mph 49 % 0.0 in
16:27 18.2 °F 7.0 °F 1024.9 in NNW 6.4 mph 17.7 mph 48 % 0.0 in
16:32 18.3 °F 6.5 °F 1024.9 in NNW 6.4 mph 17.7 mph 46 % 0.0 in
16:37 18.4 °F 6.9 °F 1024.9 in NNW 12.9 mph 17.7 mph 47 % 0.0 in
16:42 18.3 °F 6.8 °F 1024.9 in NNW 4.8 mph 19.3 mph 47 % 0.0 in
16:47 18.4 °F 6.9 °F 1024.9 in NW 1.6 mph 19.3 mph 47 % 0.0 in
16:52 18.6 °F 6.4 °F 1024.9 in North 12.9 mph 19.3 mph 45 % 0.0 in
16:57 18.4 °F 6.3 °F 1024.9 in North 11.3 mph 19.3 mph 45 % 0.0 in
17:02 18.5 °F 6.0 °F 1024.9 in NNW 9.7 mph 19.3 mph 44 % 0.0 in
17:07 18.5 °F 6.3 °F 1024.9 in NNW 4.8 mph 20.9 mph 45 % 0.0 in
17:12 18.4 °F 6.3 °F 1024.9 in North 14.5 mph 22.5 mph 45 % 0.0 in
17:22 18.4 °F 5.9 °F 1024.9 in NNE 9.7 mph 22.5 mph 44 % 0.0 in
17:27 18.3 °F 5.8 °F 1024.9 in NNW 8.0 mph 19.3 mph 44 % 0.0 in
17:32 18.2 °F 5.4 °F 1024.6 in North 6.4 mph 17.7 mph 43 % 0.0 in
17:37 18.2 °F 6.1 °F 1024.6 in NNW 9.7 mph 17.7 mph 45 % 0.0 in
17:42 18.3 °F 5.8 °F 1024.6 in North 3.2 mph 17.7 mph 44 % 0.0 in
17:47 18.3 °F 5.5 °F 1024.6 in North 6.4 mph 17.7 mph 43 % 0.0 in
17:52 18.3 °F 5.8 °F 1024.6 in NE 9.7 mph 17.7 mph 44 % 0.0 in
17:57 18.3 °F 5.5 °F 1024.6 in North 14.5 mph 16.1 mph 43 % 0.0 in
18:02 18.2 °F 5.7 °F 1024.6 in NNW 6.4 mph 17.7 mph 44 % 0.0 in
18:12 18.2 °F 5.1 °F 1024.6 in NW 6.4 mph 19.3 mph 42 % 0.0 in
18:17 18.1 °F 6.0 °F 1024.6 in NNW 6.4 mph 17.7 mph 45 % 0.0 in
18:22 18.0 °F 5.6 °F 1024.6 in NNE 9.7 mph 17.7 mph 44 % 0.0 in
18:32 17.8 °F 5.4 °F 1024.6 in NNW 3.2 mph 19.3 mph 44 % 0.0 in
18:42 17.8 °F 5.4 °F 1024.6 in NNE 6.4 mph 16.1 mph 44 % 0.0 in
18:47 17.8 °F 6.3 °F 1024.6 in NE 6.4 mph 14.5 mph 47 % 0.0 in
18:52 17.7 °F 5.6 °F 1024.6 in NNW 8.0 mph 14.5 mph 45 % 0.0 in
18:57 17.6 °F 5.8 °F 1024.6 in North 11.3 mph 14.5 mph 46 % 0.0 in
19:02 17.6 °F 5.8 °F 1024.6 in North 6.4 mph 14.5 mph 46 % 0.0 in
19:07 17.5 °F 6.1 °F 1024.6 in NNE 3.2 mph 14.5 mph 47 % 0.0 in
19:12 17.4 °F 6.0 °F 1024.6 in NNW 6.4 mph 14.5 mph 47 % 0.0 in
19:17 17.3 °F 6.2 °F 1024.6 in NNW 4.8 mph 12.9 mph 48 % 0.0 in
19:22 17.2 °F 6.4 °F 1024.6 in North 6.4 mph 12.9 mph 49 % 0.0 in
19:32 16.9 °F 5.8 °F 1024.6 in NNE 3.2 mph 16.1 mph 48 % 0.0 in
19:37 16.9 °F 5.8 °F 1024.6 in NNW 3.2 mph 16.1 mph 48 % 0.0 in
19:42 16.7 °F 5.6 °F 1024.9 in NNE 3.2 mph 16.1 mph 48 % 0.0 in
19:47 16.5 °F 5.5 °F 1024.9 in NE 4.8 mph 11.3 mph 48 % 0.0 in
19:52 16.3 °F 5.6 °F 1024.6 in NNW 4.8 mph 11.3 mph 49 % 0.0 in
19:57 16.1 °F 5.7 °F 1024.9 in NNE 3.2 mph 11.3 mph 50 % 0.0 in
20:02 15.7 °F 5.6 °F 1024.9 in NE 1.6 mph 9.7 mph 51 % 0.0 in
20:07 15.4 °F 5.6 °F 1024.6 in NNE 6.4 mph 9.7 mph 52 % 0.0 in
20:12 15.2 °F 5.7 °F 1024.9 in NNW 1.6 mph 9.7 mph 53 % 0.0 in
20:17 15.1 °F 5.6 °F 1024.9 in Calm   8.0 mph 53 % 0.0 in
20:22 14.9 °F 5.7 °F 1024.9 in NNW 3.2 mph 8.0 mph 54 % 0.0 in
20:27 14.8 °F 5.8 °F 1024.9 in North 3.2 mph 6.4 mph 55 % 0.0 in
20:32 14.6 °F 5.9 °F 1024.9 in North 4.8 mph 6.4 mph 56 % 0.0 in
20:37 14.4 °F 5.7 °F 1024.9 in NNW 1.6 mph 6.4 mph 56 % 0.0 in
20:42 14.2 °F 5.5 °F 1024.9 in NNW 3.2 mph 6.4 mph 56 % 0.0 in
20:47 14.0 °F 5.6 °F 1024.9 in North 6.4 mph 6.4 mph 57 % 0.0 in
20:52 13.9 °F 5.5 °F 1024.9 in North 3.2 mph 6.4 mph 57 % 0.0 in
20:57 13.7 °F 5.6 °F 1024.9 in NW 1.6 mph 6.4 mph 58 % 0.0 in
21:02 13.6 °F 5.7 °F 1024.9 in North 1.6 mph 6.4 mph 59 % 0.0 in
21:07 13.4 °F 5.5 °F 1024.9 in North 3.2 mph 8.0 mph 59 % 0.0 in
21:12 13.3 °F 5.5 °F 1024.9 in North 1.6 mph 8.0 mph 59 % 0.0 in
21:17 13.2 °F 5.6 °F 1024.9 in North 3.2 mph 6.4 mph 60 % 0.0 in
21:22 13.0 °F 5.7 °F 1025.3 in North 1.6 mph 4.8 mph 61 % 0.0 in
21:32 12.7 °F 5.6 °F 1025.3 in Calm   4.8 mph 62 % 0.0 in
21:37 12.6 °F 5.5 °F 1025.3 in NNW 1.6 mph 3.2 mph 62 % 0.0 in
21:42 12.5 °F 5.6 °F 1025.3 in Calm   1.6 mph 63 % 0.0 in
21:47 12.5 °F 5.6 °F 1025.3 in NNW 1.6 mph 1.6 mph 63 % 0.0 in
21:52 12.4 °F 5.6 °F 1025.3 in NW 1.6 mph 3.2 mph 63 % 0.0 in
21:57 12.3 °F 5.5 °F 1025.3 in NW 1.6 mph 3.2 mph 63 % 0.0 in
22:02 12.3 °F 5.7 °F 1025.3 in NW 1.6 mph 3.2 mph 64 % 0.0 in
22:12 11.6 °F 5.7 °F 1025.6 in WNW 3.2 mph 4.8 mph 67 % 0.0 in
22:17 11.3 °F 5.6 °F 1025.6 in WNW 3.2 mph 4.8 mph 68 % 0.0 in
22:22 11.3 °F 5.6 °F 1025.6 in NW 3.2 mph 3.2 mph 68 % 0.0 in
22:27 11.8 °F 5.7 °F 1025.3 in NW 1.6 mph 3.2 mph 66 % 0.0 in
22:32 11.9 °F 5.5 °F 1025.6 in WNW 1.6 mph 3.2 mph 65 % 0.0 in
22:37 11.9 °F 5.5 °F 1025.3 in NW 1.6 mph 3.2 mph 65 % 0.0 in
22:42 11.8 °F 5.7 °F 1025.3 in WNW 3.2 mph 3.2 mph 66 % 0.0 in
22:47 10.9 °F 5.4 °F 1025.3 in WNW 3.2 mph 3.2 mph 69 % 0.0 in
22:52 10.8 °F 5.5 °F 1025.3 in WNW 1.6 mph 3.2 mph 70 % 0.0 in
22:57 10.3 °F 5.5 °F 1025.3 in WNW 3.2 mph 3.2 mph 72 % 0.0 in
23:02 10.2 °F 5.6 °F 1025.6 in WNW 3.2 mph 3.2 mph 73 % 0.0 in
23:07 10.2 °F 5.6 °F 1025.6 in WNW 3.2 mph 3.2 mph 73 % 0.0 in
23:12 10.1 °F 5.5 °F 1025.6 in WNW 3.2 mph 3.2 mph 73 % 0.0 in
23:17 10.1 °F 5.5 °F 1025.6 in WNW 3.2 mph 4.8 mph 73 % 0.0 in
23:22 10.1 °F 5.5 °F 1025.6 in WNW 3.2 mph 4.8 mph 73 % 0.0 in
23:27 10.4 °F 5.4 °F 1025.6 in WNW 1.6 mph 4.8 mph 71 % 0.0 in
23:32 10.7 °F 5.5 °F 1025.6 in NW 3.2 mph 4.8 mph 70 % 0.0 in
23:42 11.0 °F 5.3 °F 1025.6 in NW 1.6 mph 4.8 mph 68 % 0.0 in
23:47 10.6 °F 5.4 °F 1025.6 in WNW 3.2 mph 3.2 mph 70 % 0.0 in
23:52 10.4 °F 5.4 °F 1025.3 in WNW 3.2 mph 3.2 mph 71 % 0.0 in
23:57 10.2 °F 5.4 °F 1025.3 in WNW 3.2 mph 3.2 mph 72 % 0.0 in
Meteo18
Compliments of Weather Underground - 4 mb

Script developed by  Jim McMurry - jmcmurry@mwt.net Adapted for the template by  Wim van der Kuil - Leuven-Template.eu

You find our weather info also at:

European Weather Network

Weather Underground

Equipment we use:

Weather-station
Davis Vue

Weather-program
Meteobridge

Weather-server
Raspberry PI 2 B+

Provider
1 and 1

Davis Vue

Meteobridge

Raspberry PI 2 B+

1 and 1